Nearby METAR Reports

 

KSJC - San Jose, California, USA
Distance from station: NE 14km
Actualización: 30/11/2022 23:53
Muy nuboso
Muy nuboso
 Viento del NNO
Viento: NNO 11 km/h
Temperatura: 16°C
Rocío: 1°C
Humedad: 36%
Barómetro: 1013.2 hPa
Clouds: Muy nuboso
Visibilidad: 16 km
Cloud details: Few Clouds 610 m
Parcialmente nuboso 5486 m
Muy nuboso 7620 m
2022/11/30 22:53 KSJC 302253Z 33006KT 10SM FEW020 SCT180 BKN250 16/01 A2992 RMK AO2 SLP131 T01560011
KNUQ - Moffett Nas/Mtn, California, USA
Distance from station: N 14km
Actualización: 01/12/2022 00:35
Despejado
Despejado
 Viento del NNO
Viento: NNO 11 km/h
Temperatura: 13°C
Rocío: 3°C
Humedad: 51%
Barómetro: 1013.5 hPa
Clouds: Despejado
Visibilidad: 16 km
2022/11/30 23:35 KNUQ 302335Z AUTO 34006KT 10SM CLR 13/03 A2993 RMK AO2
 
KPAO - Palo Alto, California, USA
Distance from station: NNO 23km
Actualización: 01/12/2022 00:47
Despejado
Despejado
 Viento del N
Viento: N 11 km/h
Temperatura: 13°C
Rocío: 4°C
Humedad: 55%
Barómetro: 1013.5 hPa
Clouds: Despejado
Visibilidad: 16 km
2022/11/30 23:47 KPAO 302347Z 35006KT 10SM SKC 13/04 A2993
KRHV - San Jose/Reid, California, USA
Distance from station: ENE 19km
Actualización: 30/11/2022 23:55
Few Clouds
Few Clouds
 Viento del O
Viento: O 9 km/h
Temperatura: 16°C
Rocío: 2°C
Humedad: 39%
Barómetro: 1013.5 hPa
Clouds: Few Clouds
Visibilidad: 16 km
Cloud details: Few Clouds 5486 m
2022/11/30 22:55 KRHV 302255Z 26005KT 10SM FEW180 16/02 A2993
 
KOAK - Oakland, California, USA
Distance from station: NNO 50km
Actualización: 30/11/2022 23:53
Muy nuboso
Muy nuboso
 Viento del NO
Viento: NO 9 km/h
Temperatura: 14°C
Rocío: 4°C
Humedad: 51%
Barómetro: 1013.9 hPa
Clouds: Muy nuboso
Visibilidad: 16 km
Cloud details: Few Clouds 732 m
Few Clouds 3658 m
Parcialmente nuboso 6706 m
Muy nuboso 9144 m
2022/11/30 22:53 KOAK 302253Z 31005KT 10SM FEW024 FEW120 SCT220 BKN300 14/04 A2994 RMK AO2 SLP138 T01390044
KSQL - San Carlos Airpo, California, USA
Distance from station: NO 34km
Actualización: 01/12/2022 00:47
Few Clouds
Few Clouds
 Viento del varies
Viento: varies 6 km/h
Temperatura: 13°C
Rocío: 5°C
Humedad: 59%
Barómetro: 1013.9 hPa
Clouds: Few Clouds
Visibilidad: 16 km
Cloud details: Few Clouds 5486 m
2022/11/30 23:47 KSQL 302347Z VRB03KT 10SM FEW180 13/05 A2994
 
KSFO - San Francisco, California, USA
Distance from station: NO 49km
Actualización: 30/11/2022 23:56
Muy nuboso
Muy nuboso
 Viento del NE
Viento: NE 11 km/h
Temperatura: 14°C
Rocío: 6°C
Humedad: 59%
Barómetro: 1013.5 hPa
Clouds: Muy nuboso
Visibilidad: 16 km
Cloud details: Few Clouds 610 m
Few Clouds 5486 m
Muy nuboso 6096 m
2022/11/30 22:56 KSFO 302256Z 05006KT 10SM FEW020 FEW180 BKN200 14/06 A2993 RMK AO2 SLP136 T01390061
KE16 - San Martin, California, USA
Distance from station: ESE 43km
Actualización: 01/12/2022 00:35
Despejado
Despejado
 Viento del SSO
Viento: SSO 9 km/h
Temperatura: 14°C
Rocío: -1°C
Humedad: 36%
Barómetro: 1014.6 hPa
Clouds: Despejado
Visibilidad: 16 km
2022/11/30 23:35 KE16 302335Z AUTO 20005KT 10SM CLR 14/M01 A2996 RMK AO2 PWINO PNO
 
KWVI - Watsonville, California, USA
Distance from station: SSE 44km
Actualización: 30/11/2022 23:53
Despejado
Despejado
 Viento del OSO
Viento: OSO 13 km/h
Temperatura: 12°C
Rocío: 5°C
Humedad: 63%
Barómetro: 1014.2 hPa
Clouds: Despejado
Visibilidad: 16 km
2022/11/30 22:53 KWVI 302253Z AUTO 24007KT 10SM CLR 12/05 A2995 RMK AO2 SLP144 T01220050
KHAF - Half Moon Bay, California, USA
Distance from station: ONO 50km
Actualización: 01/12/2022 00:35
Parcialmente nuboso
Parcialmente nuboso
 Viento del S
Viento: S 7 km/h
Temperatura: 12°C
Rocío: 9°C
Humedad: 82%
Barómetro: 1014.2 hPa
Clouds: Parcialmente nuboso
Visibilidad: 14 km
Cloud details: Parcialmente nuboso 1219 m
2022/11/30 23:35 KHAF 302335Z AUTO 18004KT 9SM SCT040 12/09 A2995 RMK AO2
 
KHWD - Hayward, California, USA
Distance from station: N 44km
Actualización: 30/11/2022 23:54
Despejado
Despejado
 Viento del O
Viento: O 11 km/h
Temperatura: 14°C
Rocío: 3°C
Humedad: 48%
Barómetro: 1013.5 hPa
Clouds: Despejado
2022/11/30 22:54 KHWD 302254Z 28006KT CLR 14/03 A2993 RMK AO2 SLP145 T01440033 $
KLVK - Livermore, California, USA
Distance from station: NNE 51km
Actualización: 30/11/2022 23:53
Despejado
Despejado
 Viento del O
Viento: O 19 km/h
Temperatura: 15°C
Rocío: 2°C
Humedad: 42%
Barómetro: 1012.9 hPa
Clouds: Despejado
Visibilidad: 16 km
2022/11/30 22:53 KLVK 302253Z 26010KT 10SM CLR 15/02 A2991 RMK AO2 SLP129 T01500022